sensor_id;sensor_type;location;lat;lon;timestamp;temperature;humidity
12704;DHT22;6416;52.182;7.650;2023-01-13T00:00:42;13.10;90.60
12704;DHT22;6416;52.182;7.650;2023-01-13T00:03:08;13.10;90.40
12704;DHT22;6416;52.182;7.650;2023-01-13T00:05:33;13.10;90.30
12704;DHT22;6416;52.182;7.650;2023-01-13T00:07:59;13.00;90.20
12704;DHT22;6416;52.182;7.650;2023-01-13T00:10:24;13.00;90.20
12704;DHT22;6416;52.182;7.650;2023-01-13T00:12:50;12.90;90.20
12704;DHT22;6416;52.182;7.650;2023-01-13T00:15:15;12.90;90.10
12704;DHT22;6416;52.182;7.650;2023-01-13T00:17:41;12.90;90.10
12704;DHT22;6416;52.182;7.650;2023-01-13T00:20:08;12.80;90.00
12704;DHT22;6416;52.182;7.650;2023-01-13T00:22:34;12.80;90.10
12704;DHT22;6416;52.182;7.650;2023-01-13T00:25:00;12.70;90.20
12704;DHT22;6416;52.182;7.650;2023-01-13T00:27:26;12.70;90.20
12704;DHT22;6416;52.182;7.650;2023-01-13T00:29:52;12.70;90.30
12704;DHT22;6416;52.182;7.650;2023-01-13T00:32:17;12.70;90.40
12704;DHT22;6416;52.182;7.650;2023-01-13T00:34:43;12.70;90.30
12704;DHT22;6416;52.182;7.650;2023-01-13T00:37:08;12.60;90.20
12704;DHT22;6416;52.182;7.650;2023-01-13T00:39:34;12.60;90.10
12704;DHT22;6416;52.182;7.650;2023-01-13T00:41:59;12.60;90.10
12704;DHT22;6416;52.182;7.650;2023-01-13T00:44:25;12.60;90.10
12704;DHT22;6416;52.182;7.650;2023-01-13T00:46:50;12.60;90.10
12704;DHT22;6416;52.182;7.650;2023-01-13T00:49:16;12.50;90.10
12704;DHT22;6416;52.182;7.650;2023-01-13T00:51:41;12.60;90.10
12704;DHT22;6416;52.182;7.650;2023-01-13T00:54:07;12.50;90.00
12704;DHT22;6416;52.182;7.650;2023-01-13T00:56:32;12.50;90.10
12704;DHT22;6416;52.182;7.650;2023-01-13T00:58:58;12.50;90.00
12704;DHT22;6416;52.182;7.650;2023-01-13T01:01:24;12.40;90.00
12704;DHT22;6416;52.182;7.650;2023-01-13T01:03:50;12.40;89.80
12704;DHT22;6416;52.182;7.650;2023-01-13T01:06:19;12.40;89.80
12704;DHT22;6416;52.182;7.650;2023-01-13T01:08:45;12.40;89.90
12704;DHT22;6416;52.182;7.650;2023-01-13T01:11:13;12.30;90.00
12704;DHT22;6416;52.182;7.650;2023-01-13T01:13:39;12.30;90.00
12704;DHT22;6416;52.182;7.650;2023-01-13T01:16:08;12.30;90.10
12704;DHT22;6416;52.182;7.650;2023-01-13T01:18:35;12.30;90.10
12704;DHT22;6416;52.182;7.650;2023-01-13T01:21:02;12.30;90.40
12704;DHT22;6416;52.182;7.650;2023-01-13T01:23:28;12.30;90.60
12704;DHT22;6416;52.182;7.650;2023-01-13T01:25:54;12.30;90.60
12704;DHT22;6416;52.182;7.650;2023-01-13T01:28:23;12.30;90.70
12704;DHT22;6416;52.182;7.650;2023-01-13T01:30:49;12.40;90.60
12704;DHT22;6416;52.182;7.650;2023-01-13T01:33:14;12.40;90.30
12704;DHT22;6416;52.182;7.650;2023-01-13T01:35:40;12.40;90.00
12704;DHT22;6416;52.182;7.650;2023-01-13T01:38:05;12.30;89.90
12704;DHT22;6416;52.182;7.650;2023-01-13T01:40:31;12.30;89.90
12704;DHT22;6416;52.182;7.650;2023-01-13T01:42:56;12.30;89.50
12704;DHT22;6416;52.182;7.650;2023-01-13T01:45:23;12.20;89.60
12704;DHT22;6416;52.182;7.650;2023-01-13T01:47:54;12.20;89.40
12704;DHT22;6416;52.182;7.650;2023-01-13T01:50:24;12.20;89.20
12704;DHT22;6416;52.182;7.650;2023-01-13T01:53:06;12.20;88.90
12704;DHT22;6416;52.182;7.650;2023-01-13T01:55:34;12.10;89.20
12704;DHT22;6416;52.182;7.650;2023-01-13T01:58:08;12.10;88.50
12704;DHT22;6416;52.182;7.650;2023-01-13T02:00:34;12.10;88.50
12704;DHT22;6416;52.182;7.650;2023-01-13T02:03:00;12.00;88.30
12704;DHT22;6416;52.182;7.650;2023-01-13T02:05:27;12.00;88.10
12704;DHT22;6416;52.182;7.650;2023-01-13T02:07:54;11.90;88.20
12704;DHT22;6416;52.182;7.650;2023-01-13T02:10:23;11.80;88.00
12704;DHT22;6416;52.182;7.650;2023-01-13T02:12:49;11.80;88.00
12704;DHT22;6416;52.182;7.650;2023-01-13T02:15:22;11.80;87.90
12704;DHT22;6416;52.182;7.650;2023-01-13T02:28:29;11.70;89.00
12704;DHT22;6416;52.182;7.650;2023-01-13T02:31:06;11.70;88.70
12704;DHT22;6416;52.182;7.650;2023-01-13T02:34:04;11.70;88.30
12704;DHT22;6416;52.182;7.650;2023-01-13T02:36:49;11.60;86.90
12704;DHT22;6416;52.182;7.650;2023-01-13T02:42:09;11.60;88.30
12704;DHT22;6416;52.182;7.650;2023-01-13T02:44:47;11.60;88.40
12704;DHT22;6416;52.182;7.650;2023-01-13T02:47:17;11.60;89.10
12704;DHT22;6416;52.182;7.650;2023-01-13T02:49:49;11.50;90.00
12704;DHT22;6416;52.182;7.650;2023-01-13T02:54:52;11.60;90.00
12704;DHT22;6416;52.182;7.650;2023-01-13T02:57:19;11.60;90.00
12704;DHT22;6416;52.182;7.650;2023-01-13T02:59:45;11.60;90.00
12704;DHT22;6416;52.182;7.650;2023-01-13T03:02:15;11.60;90.00
12704;DHT22;6416;52.182;7.650;2023-01-13T03:16:14;11.70;90.20
12704;DHT22;6416;52.182;7.650;2023-01-13T03:19:00;11.70;90.40
12704;DHT22;6416;52.182;7.650;2023-01-13T03:21:43;11.70;89.60
12704;DHT22;6416;52.182;7.650;2023-01-13T03:24:19;11.70;89.80
12704;DHT22;6416;52.182;7.650;2023-01-13T03:32:38;11.70;90.00
12704;DHT22;6416;52.182;7.650;2023-01-13T03:37:36;11.60;89.20
12704;DHT22;6416;52.182;7.650;2023-01-13T03:40:15;11.60;89.80
12704;DHT22;6416;52.182;7.650;2023-01-13T03:42:45;11.60;88.30
12704;DHT22;6416;52.182;7.650;2023-01-13T03:45:16;11.60;88.10
12704;DHT22;6416;52.182;7.650;2023-01-13T03:47:54;11.50;87.60
12704;DHT22;6416;52.182;7.650;2023-01-13T03:50:36;11.50;87.20
12704;DHT22;6416;52.182;7.650;2023-01-13T03:53:14;11.50;87.50
12704;DHT22;6416;52.182;7.650;2023-01-13T03:55:48;11.40;88.30
12704;DHT22;6416;52.182;7.650;2023-01-13T03:58:28;11.40;89.10
12704;DHT22;6416;52.182;7.650;2023-01-13T04:01:02;11.40;88.80
12704;DHT22;6416;52.182;7.650;2023-01-13T04:03:34;11.40;88.90
12704;DHT22;6416;52.182;7.650;2023-01-13T04:08:39;11.40;88.00
12704;DHT22;6416;52.182;7.650;2023-01-13T04:11:16;11.40;88.30
12704;DHT22;6416;52.182;7.650;2023-01-13T04:13:44;11.30;87.90
12704;DHT22;6416;52.182;7.650;2023-01-13T04:16:11;11.30;89.00
12704;DHT22;6416;52.182;7.650;2023-01-13T04:18:38;11.30;89.10
12704;DHT22;6416;52.182;7.650;2023-01-13T04:21:06;11.30;89.20
12704;DHT22;6416;52.182;7.650;2023-01-13T04:23:32;11.30;88.90
12704;DHT22;6416;52.182;7.650;2023-01-13T04:25:57;11.30;88.70
12704;DHT22;6416;52.182;7.650;2023-01-13T04:28:24;11.30;88.70
12704;DHT22;6416;52.182;7.650;2023-01-13T04:30:50;11.30;88.40
12704;DHT22;6416;52.182;7.650;2023-01-13T04:33:17;11.30;88.60
12704;DHT22;6416;52.182;7.650;2023-01-13T04:35:45;11.30;88.50
12704;DHT22;6416;52.182;7.650;2023-01-13T04:38:16;11.30;88.50
12704;DHT22;6416;52.182;7.650;2023-01-13T04:40:41;11.30;88.60
12704;DHT22;6416;52.182;7.650;2023-01-13T04:43:07;11.30;89.10
12704;DHT22;6416;52.182;7.650;2023-01-13T04:45:33;11.30;89.30
12704;DHT22;6416;52.182;7.650;2023-01-13T04:47:59;11.20;89.30
12704;DHT22;6416;52.182;7.650;2023-01-13T04:50:25;11.30;89.20
12704;DHT22;6416;52.182;7.650;2023-01-13T04:52:52;11.30;89.20
12704;DHT22;6416;52.182;7.650;2023-01-13T04:55:19;11.30;89.30
12704;DHT22;6416;52.182;7.650;2023-01-13T04:57:45;11.30;89.30
12704;DHT22;6416;52.182;7.650;2023-01-13T05:00:12;11.30;89.20
12704;DHT22;6416;52.182;7.650;2023-01-13T05:02:38;11.30;88.90
12704;DHT22;6416;52.182;7.650;2023-01-13T05:05:04;11.30;89.00
12704;DHT22;6416;52.182;7.650;2023-01-13T05:07:29;11.30;89.60
12704;DHT22;6416;52.182;7.650;2023-01-13T05:09:55;11.30;88.70
12704;DHT22;6416;52.182;7.650;2023-01-13T05:12:20;11.30;88.70
12704;DHT22;6416;52.182;7.650;2023-01-13T05:14:46;11.30;88.80
12704;DHT22;6416;52.182;7.650;2023-01-13T05:17:19;11.30;88.90
12704;DHT22;6416;52.182;7.650;2023-01-13T05:19:45;11.30;88.20
12704;DHT22;6416;52.182;7.650;2023-01-13T05:22:11;11.30;88.80
12704;DHT22;6416;52.182;7.650;2023-01-13T05:24:36;11.30;88.60
12704;DHT22;6416;52.182;7.650;2023-01-13T05:27:02;11.30;88.60
12704;DHT22;6416;52.182;7.650;2023-01-13T05:29:27;11.30;88.60
12704;DHT22;6416;52.182;7.650;2023-01-13T05:31:53;11.30;88.50
12704;DHT22;6416;52.182;7.650;2023-01-13T05:34:18;11.30;88.30
12704;DHT22;6416;52.182;7.650;2023-01-13T05:36:43;11.30;88.40
12704;DHT22;6416;52.182;7.650;2023-01-13T05:39:09;11.20;88.30
12704;DHT22;6416;52.182;7.650;2023-01-13T05:41:34;11.20;88.40
12704;DHT22;6416;52.182;7.650;2023-01-13T05:44:00;11.20;88.30
12704;DHT22;6416;52.182;7.650;2023-01-13T05:46:25;11.20;88.50
12704;DHT22;6416;52.182;7.650;2023-01-13T05:48:51;11.20;88.80
12704;DHT22;6416;52.182;7.650;2023-01-13T05:51:16;11.20;88.90
12704;DHT22;6416;52.182;7.650;2023-01-13T05:53:42;11.20;88.70
12704;DHT22;6416;52.182;7.650;2023-01-13T05:56:07;11.20;88.90
12704;DHT22;6416;52.182;7.650;2023-01-13T05:58:33;11.30;88.80
12704;DHT22;6416;52.182;7.650;2023-01-13T06:01:05;11.30;88.80
12704;DHT22;6416;52.182;7.650;2023-01-13T06:03:31;11.30;88.00
12704;DHT22;6416;52.182;7.650;2023-01-13T06:05:56;11.30;88.80
12704;DHT22;6416;52.182;7.650;2023-01-13T06:08:22;11.30;88.50
12704;DHT22;6416;52.182;7.650;2023-01-13T06:10:48;11.20;88.20
12704;DHT22;6416;52.182;7.650;2023-01-13T06:13:13;11.20;87.60
12704;DHT22;6416;52.182;7.650;2023-01-13T06:15:39;11.20;87.10
12704;DHT22;6416;52.182;7.650;2023-01-13T06:18:04;11.20;86.70
12704;DHT22;6416;52.182;7.650;2023-01-13T06:20:30;11.20;86.90
12704;DHT22;6416;52.182;7.650;2023-01-13T06:22:56;11.10;86.70
12704;DHT22;6416;52.182;7.650;2023-01-13T06:25:32;11.10;87.20
12704;DHT22;6416;52.182;7.650;2023-01-13T06:27:59;11.10;87.90
12704;DHT22;6416;52.182;7.650;2023-01-13T06:30:30;11.10;88.40
12704;DHT22;6416;52.182;7.650;2023-01-13T06:32:58;11.10;88.20
12704;DHT22;6416;52.182;7.650;2023-01-13T06:35:29;11.10;88.20
12704;DHT22;6416;52.182;7.650;2023-01-13T06:37:58;11.10;87.90
12704;DHT22;6416;52.182;7.650;2023-01-13T06:40:25;11.10;87.90
12704;DHT22;6416;52.182;7.650;2023-01-13T06:42:52;11.10;87.60
12704;DHT22;6416;52.182;7.650;2023-01-13T06:45:19;11.10;87.00
12704;DHT22;6416;52.182;7.650;2023-01-13T06:47:44;11.00;87.00
12704;DHT22;6416;52.182;7.650;2023-01-13T06:50:10;11.00;86.50
12704;DHT22;6416;52.182;7.650;2023-01-13T06:52:36;11.00;86.80
12704;DHT22;6416;52.182;7.650;2023-01-13T06:55:02;10.90;86.60
12704;DHT22;6416;52.182;7.650;2023-01-13T06:57:27;10.90;86.30
12704;DHT22;6416;52.182;7.650;2023-01-13T06:59:53;10.90;86.60
12704;DHT22;6416;52.182;7.650;2023-01-13T07:02:18;10.80;86.40
12704;DHT22;6416;52.182;7.650;2023-01-13T07:04:44;10.80;86.60
12704;DHT22;6416;52.182;7.650;2023-01-13T07:07:09;10.80;87.00
12704;DHT22;6416;52.182;7.650;2023-01-13T07:09:35;10.80;87.50
12704;DHT22;6416;52.182;7.650;2023-01-13T07:12:00;10.80;87.50
12704;DHT22;6416;52.182;7.650;2023-01-13T07:14:26;10.80;87.50
12704;DHT22;6416;52.182;7.650;2023-01-13T07:16:51;10.80;87.60
12704;DHT22;6416;52.182;7.650;2023-01-13T07:19:17;10.80;87.40
12704;DHT22;6416;52.182;7.650;2023-01-13T07:21:42;10.80;87.50
12704;DHT22;6416;52.182;7.650;2023-01-13T07:24:08;10.70;87.50
12704;DHT22;6416;52.182;7.650;2023-01-13T07:26:33;10.80;88.00
12704;DHT22;6416;52.182;7.650;2023-01-13T07:28:59;10.80;88.00
12704;DHT22;6416;52.182;7.650;2023-01-13T07:31:24;10.80;88.00
12704;DHT22;6416;52.182;7.650;2023-01-13T07:33:49;10.80;88.00
12704;DHT22;6416;52.182;7.650;2023-01-13T07:36:15;10.80;88.20
12704;DHT22;6416;52.182;7.650;2023-01-13T07:38:40;10.80;88.40
12704;DHT22;6416;52.182;7.650;2023-01-13T07:41:06;10.80;88.30
12704;DHT22;6416;52.182;7.650;2023-01-13T07:43:31;10.80;88.60
12704;DHT22;6416;52.182;7.650;2023-01-13T07:45:58;10.90;88.70
12704;DHT22;6416;52.182;7.650;2023-01-13T07:48:27;10.90;88.70
12704;DHT22;6416;52.182;7.650;2023-01-13T07:50:54;10.90;88.80
12704;DHT22;6416;52.182;7.650;2023-01-13T07:53:20;10.90;88.60
12704;DHT22;6416;52.182;7.650;2023-01-13T07:55:45;10.90;88.50
12704;DHT22;6416;52.182;7.650;2023-01-13T07:58:11;11.00;88.70
12704;DHT22;6416;52.182;7.650;2023-01-13T08:00:37;11.00;88.80
12704;DHT22;6416;52.182;7.650;2023-01-13T08:03:03;11.00;88.80
12704;DHT22;6416;52.182;7.650;2023-01-13T08:05:29;11.00;88.60
12704;DHT22;6416;52.182;7.650;2023-01-13T08:07:54;11.10;88.70
12704;DHT22;6416;52.182;7.650;2023-01-13T08:10:20;11.10;88.70
12704;DHT22;6416;52.182;7.650;2023-01-13T08:12:45;11.10;88.70
12704;DHT22;6416;52.182;7.650;2023-01-13T08:15:11;11.10;88.60
12704;DHT22;6416;52.182;7.650;2023-01-13T08:17:36;11.20;88.90
12704;DHT22;6416;52.182;7.650;2023-01-13T08:20:03;11.20;88.70
12704;DHT22;6416;52.182;7.650;2023-01-13T08:22:29;11.20;88.50
12704;DHT22;6416;52.182;7.650;2023-01-13T08:24:54;11.20;88.60
12704;DHT22;6416;52.182;7.650;2023-01-13T08:27:20;11.20;88.70
12704;DHT22;6416;52.182;7.650;2023-01-13T08:29:45;11.20;88.70
12704;DHT22;6416;52.182;7.650;2023-01-13T08:32:11;11.30;88.70
12704;DHT22;6416;52.182;7.650;2023-01-13T08:34:36;11.30;88.50
12704;DHT22;6416;52.182;7.650;2023-01-13T08:37:01;11.30;88.40
12704;DHT22;6416;52.182;7.650;2023-01-13T08:39:27;11.30;88.60
12704;DHT22;6416;52.182;7.650;2023-01-13T08:41:52;11.30;88.20
12704;DHT22;6416;52.182;7.650;2023-01-13T08:44:18;11.40;87.70
12704;DHT22;6416;52.182;7.650;2023-01-13T08:46:43;11.30;88.30
12704;DHT22;6416;52.182;7.650;2023-01-13T08:49:09;11.40;88.40
12704;DHT22;6416;52.182;7.650;2023-01-13T08:51:34;11.40;88.30
12704;DHT22;6416;52.182;7.650;2023-01-13T08:54:00;11.40;88.20
12704;DHT22;6416;52.182;7.650;2023-01-13T08:56:28;11.40;88.10
12704;DHT22;6416;52.182;7.650;2023-01-13T08:58:56;11.40;87.80
12704;DHT22;6416;52.182;7.650;2023-01-13T09:01:22;11.50;88.00
12704;DHT22;6416;52.182;7.650;2023-01-13T09:03:49;11.50;88.30
12704;DHT22;6416;52.182;7.650;2023-01-13T09:06:14;11.50;88.40
12704;DHT22;6416;52.182;7.650;2023-01-13T09:08:40;11.50;88.40
12704;DHT22;6416;52.182;7.650;2023-01-13T09:11:06;11.50;87.90
12704;DHT22;6416;52.182;7.650;2023-01-13T09:13:31;11.60;88.10
12704;DHT22;6416;52.182;7.650;2023-01-13T09:15:57;11.60;88.10
12704;DHT22;6416;52.182;7.650;2023-01-13T09:18:22;11.60;88.10
12704;DHT22;6416;52.182;7.650;2023-01-13T09:20:47;11.60;88.10
12704;DHT22;6416;52.182;7.650;2023-01-13T09:23:13;11.60;88.10
12704;DHT22;6416;52.182;7.650;2023-01-13T09:25:38;11.60;88.20
12704;DHT22;6416;52.182;7.650;2023-01-13T09:28:04;11.60;88.20
12704;DHT22;6416;52.182;7.650;2023-01-13T09:30:30;11.70;87.90
12704;DHT22;6416;52.182;7.650;2023-01-13T09:32:57;11.70;87.80
12704;DHT22;6416;52.182;7.650;2023-01-13T09:35:23;11.70;87.30
12704;DHT22;6416;52.182;7.650;2023-01-13T09:37:48;11.80;88.10
12704;DHT22;6416;52.182;7.650;2023-01-13T09:40:18;11.80;88.60
12704;DHT22;6416;52.182;7.650;2023-01-13T09:43:05;11.90;88.10
12704;DHT22;6416;52.182;7.650;2023-01-13T09:45:40;11.90;86.70
12704;DHT22;6416;52.182;7.650;2023-01-13T09:48:18;11.90;86.80
12704;DHT22;6416;52.182;7.650;2023-01-13T09:53:44;12.00;85.10
12704;DHT22;6416;52.182;7.650;2023-01-13T09:56:12;12.00;85.40
12704;DHT22;6416;52.182;7.650;2023-01-13T09:58:37;12.00;87.40
12704;DHT22;6416;52.182;7.650;2023-01-13T10:01:17;12.00;88.20
12704;DHT22;6416;52.182;7.650;2023-01-13T10:03:45;12.10;88.30
12704;DHT22;6416;52.182;7.650;2023-01-13T10:08:45;12.20;87.40
12704;DHT22;6416;52.182;7.650;2023-01-13T10:11:16;12.30;88.20
12704;DHT22;6416;52.182;7.650;2023-01-13T10:13:42;12.40;88.10
12704;DHT22;6416;52.182;7.650;2023-01-13T10:24:20;12.70;85.10
12704;DHT22;6416;52.182;7.650;2023-01-13T10:27:03;12.60;85.20
12704;DHT22;6416;52.182;7.650;2023-01-13T10:29:30;12.60;83.60
12704;DHT22;6416;52.182;7.650;2023-01-13T10:31:57;12.60;85.90
12704;DHT22;6416;52.182;7.650;2023-01-13T10:34:24;12.40;84.60
12704;DHT22;6416;52.182;7.650;2023-01-13T10:37:18;12.50;86.00
12704;DHT22;6416;52.182;7.650;2023-01-13T10:39:46;12.60;83.70
12704;DHT22;6416;52.182;7.650;2023-01-13T10:42:15;12.70;86.30
12704;DHT22;6416;52.182;7.650;2023-01-13T10:45:15;12.70;85.80
12704;DHT22;6416;52.182;7.650;2023-01-13T10:48:05;12.80;83.50
12704;DHT22;6416;52.182;7.650;2023-01-13T10:50:34;12.80;84.00
12704;DHT22;6416;52.182;7.650;2023-01-13T10:53:14;12.90;85.90
12704;DHT22;6416;52.182;7.650;2023-01-13T10:55:40;12.80;85.20
12704;DHT22;6416;52.182;7.650;2023-01-13T10:58:15;12.80;85.60
12704;DHT22;6416;52.182;7.650;2023-01-13T11:00:41;12.70;84.50
12704;DHT22;6416;52.182;7.650;2023-01-13T11:03:21;12.70;85.10
12704;DHT22;6416;52.182;7.650;2023-01-13T11:05:59;12.60;83.00
12704;DHT22;6416;52.182;7.650;2023-01-13T11:08:43;12.60;84.10
12704;DHT22;6416;52.182;7.650;2023-01-13T11:11:37;12.60;83.80
12704;DHT22;6416;52.182;7.650;2023-01-13T11:16:51;12.50;84.50
12704;DHT22;6416;52.182;7.650;2023-01-13T11:19:21;12.50;85.10
12704;DHT22;6416;52.182;7.650;2023-01-13T11:24:34;12.50;85.30
12704;DHT22;6416;52.182;7.650;2023-01-13T11:27:22;12.50;86.20
12704;DHT22;6416;52.182;7.650;2023-01-13T11:32:58;12.50;84.30
12704;DHT22;6416;52.182;7.650;2023-01-13T11:35:24;12.50;85.10
12704;DHT22;6416;52.182;7.650;2023-01-13T11:37:56;12.50;85.60
12704;DHT22;6416;52.182;7.650;2023-01-13T11:40:31;12.50;85.30
12704;DHT22;6416;52.182;7.650;2023-01-13T11:43:13;12.40;85.30
12704;DHT22;6416;52.182;7.650;2023-01-13T11:45:50;12.40;84.60
12704;DHT22;6416;52.182;7.650;2023-01-13T11:48:22;12.40;85.30
12704;DHT22;6416;52.182;7.650;2023-01-13T11:50:50;12.40;85.20
12704;DHT22;6416;52.182;7.650;2023-01-13T12:04:23;12.40;85.90
12704;DHT22;6416;52.182;7.650;2023-01-13T12:07:11;12.40;86.60
12704;DHT22;6416;52.182;7.650;2023-01-13T12:12:24;12.40;86.20
12704;DHT22;6416;52.182;7.650;2023-01-13T12:20:50;12.50;84.70
12704;DHT22;6416;52.182;7.650;2023-01-13T12:23:28;12.50;85.10
12704;DHT22;6416;52.182;7.650;2023-01-13T12:26:00;12.50;85.80
12704;DHT22;6416;52.182;7.650;2023-01-13T12:28:53;12.50;86.10
12704;DHT22;6416;52.182;7.650;2023-01-13T12:31:21;12.60;86.40
12704;DHT22;6416;52.182;7.650;2023-01-13T12:36:52;12.60;86.40
12704;DHT22;6416;52.182;7.650;2023-01-13T12:42:14;12.70;85.50
12704;DHT22;6416;52.182;7.650;2023-01-13T12:45:05;12.80;86.80
12704;DHT22;6416;52.182;7.650;2023-01-13T12:47:42;12.80;84.70
12704;DHT22;6416;52.182;7.650;2023-01-13T12:52:50;12.90;85.50
12704;DHT22;6416;52.182;7.650;2023-01-13T12:55:22;12.80;87.00
12704;DHT22;6416;52.182;7.650;2023-01-13T12:57:55;12.90;86.50
12704;DHT22;6416;52.182;7.650;2023-01-13T13:00:21;12.90;86.90
12704;DHT22;6416;52.182;7.650;2023-01-13T13:08:17;13.00;88.80
12704;DHT22;6416;52.182;7.650;2023-01-13T13:16:45;13.20;85.80
12704;DHT22;6416;52.182;7.650;2023-01-13T13:24:35;13.20;84.40
12704;DHT22;6416;52.182;7.650;2023-01-13T13:30:07;13.20;84.50
12704;DHT22;6416;52.182;7.650;2023-01-13T13:35:27;13.20;86.80
12704;DHT22;6416;52.182;7.650;2023-01-13T13:40:24;13.30;87.80
12704;DHT22;6416;52.182;7.650;2023-01-13T13:42:56;13.40;88.40
12704;DHT22;6416;52.182;7.650;2023-01-13T13:45:24;13.40;87.50
12704;DHT22;6416;52.182;7.650;2023-01-13T13:47:50;13.50;87.70
12704;DHT22;6416;52.182;7.650;2023-01-13T13:50:19;13.50;88.70
12704;DHT22;6416;52.182;7.650;2023-01-13T13:52:54;13.60;88.00
12704;DHT22;6416;52.182;7.650;2023-01-13T13:55:24;13.70;86.60
12704;DHT22;6416;52.182;7.650;2023-01-13T13:57:53;13.70;87.20
12704;DHT22;6416;52.182;7.650;2023-01-13T14:00:23;13.70;86.50
12704;DHT22;6416;52.182;7.650;2023-01-13T14:02:57;13.70;85.50
12704;DHT22;6416;52.182;7.650;2023-01-13T14:05:26;13.70;84.60
12704;DHT22;6416;52.182;7.650;2023-01-13T14:08:02;13.70;85.00
12704;DHT22;6416;52.182;7.650;2023-01-13T14:10:36;13.60;83.50
12704;DHT22;6416;52.182;7.650;2023-01-13T14:13:13;13.60;83.30
12704;DHT22;6416;52.182;7.650;2023-01-13T14:15:38;13.60;84.40
12704;DHT22;6416;52.182;7.650;2023-01-13T14:18:18;13.50;85.50
12704;DHT22;6416;52.182;7.650;2023-01-13T14:21:21;13.50;85.10
12704;DHT22;6416;52.182;7.650;2023-01-13T14:23:51;13.50;82.60
12704;DHT22;6416;52.182;7.650;2023-01-13T14:26:22;13.50;85.10
12704;DHT22;6416;52.182;7.650;2023-01-13T14:28:48;13.50;84.80
12704;DHT22;6416;52.182;7.650;2023-01-13T14:31:13;13.50;84.60
12704;DHT22;6416;52.182;7.650;2023-01-13T14:33:42;13.50;84.80
12704;DHT22;6416;52.182;7.650;2023-01-13T14:39:22;13.40;83.60
12704;DHT22;6416;52.182;7.650;2023-01-13T14:44:31;13.30;83.30
12704;DHT22;6416;52.182;7.650;2023-01-13T14:47:00;13.30;82.10
12704;DHT22;6416;52.182;7.650;2023-01-13T14:52:12;13.10;83.00
12704;DHT22;6416;52.182;7.650;2023-01-13T14:59:55;13.00;82.00
12704;DHT22;6416;52.182;7.650;2023-01-13T15:04:49;12.80;83.40
12704;DHT22;6416;52.182;7.650;2023-01-13T15:07:24;12.80;83.70
12704;DHT22;6416;52.182;7.650;2023-01-13T15:10:14;12.80;83.40
12704;DHT22;6416;52.182;7.650;2023-01-13T15:12:42;12.70;82.50
12704;DHT22;6416;52.182;7.650;2023-01-13T15:15:24;12.60;83.20
12704;DHT22;6416;52.182;7.650;2023-01-13T15:17:50;12.60;82.80
12704;DHT22;6416;52.182;7.650;2023-01-13T15:20:17;12.50;83.60
12704;DHT22;6416;52.182;7.650;2023-01-13T15:22:45;12.50;83.90
12704;DHT22;6416;52.182;7.650;2023-01-13T15:25:11;12.40;83.90
12704;DHT22;6416;52.182;7.650;2023-01-13T15:27:37;12.40;84.00
12704;DHT22;6416;52.182;7.650;2023-01-13T15:30:13;12.40;84.20
12704;DHT22;6416;52.182;7.650;2023-01-13T15:32:38;12.40;84.10
12704;DHT22;6416;52.182;7.650;2023-01-13T15:35:04;12.40;84.10
12704;DHT22;6416;52.182;7.650;2023-01-13T15:37:30;12.40;84.40
12704;DHT22;6416;52.182;7.650;2023-01-13T15:39:55;12.30;84.50
12704;DHT22;6416;52.182;7.650;2023-01-13T15:42:21;12.30;84.40
12704;DHT22;6416;52.182;7.650;2023-01-13T15:44:46;12.30;84.40
12704;DHT22;6416;52.182;7.650;2023-01-13T15:47:11;12.30;84.50
12704;DHT22;6416;52.182;7.650;2023-01-13T15:49:39;12.30;84.30
12704;DHT22;6416;52.182;7.650;2023-01-13T15:52:22;12.30;84.40
12704;DHT22;6416;52.182;7.650;2023-01-13T15:54:49;12.30;84.10
12704;DHT22;6416;52.182;7.650;2023-01-13T15:57:27;12.20;84.40
12704;DHT22;6416;52.182;7.650;2023-01-13T15:59:55;12.20;83.90
12704;DHT22;6416;52.182;7.650;2023-01-13T16:02:21;12.20;84.20
12704;DHT22;6416;52.182;7.650;2023-01-13T16:04:47;12.20;84.20
12704;DHT22;6416;52.182;7.650;2023-01-13T16:07:16;12.10;84.30
12704;DHT22;6416;52.182;7.650;2023-01-13T16:09:42;12.00;84.10
12704;DHT22;6416;52.182;7.650;2023-01-13T16:12:08;12.00;84.40
12704;DHT22;6416;52.182;7.650;2023-01-13T16:14:33;12.00;84.60
12704;DHT22;6416;52.182;7.650;2023-01-13T16:17:00;12.00;84.80
12704;DHT22;6416;52.182;7.650;2023-01-13T16:19:26;11.90;84.70
12704;DHT22;6416;52.182;7.650;2023-01-13T16:21:52;11.90;84.70
12704;DHT22;6416;52.182;7.650;2023-01-13T16:24:17;11.90;84.80
12704;DHT22;6416;52.182;7.650;2023-01-13T16:26:43;11.80;84.70
12704;DHT22;6416;52.182;7.650;2023-01-13T16:29:08;11.80;84.80
12704;DHT22;6416;52.182;7.650;2023-01-13T16:31:34;11.80;85.00
12704;DHT22;6416;52.182;7.650;2023-01-13T16:34:01;11.80;85.30
12704;DHT22;6416;52.182;7.650;2023-01-13T16:36:28;11.80;85.20
12704;DHT22;6416;52.182;7.650;2023-01-13T16:38:54;11.80;84.70
12704;DHT22;6416;52.182;7.650;2023-01-13T16:41:20;11.70;84.80
12704;DHT22;6416;52.182;7.650;2023-01-13T16:43:47;11.80;85.00
12704;DHT22;6416;52.182;7.650;2023-01-13T16:46:19;11.70;85.30
12704;DHT22;6416;52.182;7.650;2023-01-13T16:48:46;11.70;85.20
12704;DHT22;6416;52.182;7.650;2023-01-13T16:51:11;11.70;85.40
12704;DHT22;6416;52.182;7.650;2023-01-13T16:53:37;11.70;85.40
12704;DHT22;6416;52.182;7.650;2023-01-13T16:56:02;11.70;85.40
12704;DHT22;6416;52.182;7.650;2023-01-13T16:58:32;11.70;85.80
12704;DHT22;6416;52.182;7.650;2023-01-13T17:00:57;11.70;85.70
12704;DHT22;6416;52.182;7.650;2023-01-13T17:03:23;11.80;85.50
12704;DHT22;6416;52.182;7.650;2023-01-13T17:05:48;11.80;85.60
12704;DHT22;6416;52.182;7.650;2023-01-13T17:08:15;11.80;85.70
12704;DHT22;6416;52.182;7.650;2023-01-13T17:10:41;11.80;85.60
12704;DHT22;6416;52.182;7.650;2023-01-13T17:13:07;11.80;85.70
12704;DHT22;6416;52.182;7.650;2023-01-13T17:15:32;11.90;85.60
12704;DHT22;6416;52.182;7.650;2023-01-13T17:17:57;11.80;85.40
12704;DHT22;6416;52.182;7.650;2023-01-13T17:20:23;11.80;85.50
12704;DHT22;6416;52.182;7.650;2023-01-13T17:22:48;11.80;85.60
12704;DHT22;6416;52.182;7.650;2023-01-13T17:25:14;11.80;85.60
12704;DHT22;6416;52.182;7.650;2023-01-13T17:27:39;11.90;85.40
12704;DHT22;6416;52.182;7.650;2023-01-13T17:30:05;11.80;85.30
12704;DHT22;6416;52.182;7.650;2023-01-13T17:32:31;11.80;85.30
12704;DHT22;6416;52.182;7.650;2023-01-13T17:34:56;11.80;85.40
12704;DHT22;6416;52.182;7.650;2023-01-13T17:37:22;11.80;85.50
12704;DHT22;6416;52.182;7.650;2023-01-13T17:39:47;11.80;85.80
12704;DHT22;6416;52.182;7.650;2023-01-13T17:42:14;11.80;85.40
12704;DHT22;6416;52.182;7.650;2023-01-13T17:44:40;11.80;85.80
12704;DHT22;6416;52.182;7.650;2023-01-13T17:47:06;11.80;85.90
12704;DHT22;6416;52.182;7.650;2023-01-13T17:49:31;11.80;85.70
12704;DHT22;6416;52.182;7.650;2023-01-13T17:51:57;11.90;85.90
12704;DHT22;6416;52.182;7.650;2023-01-13T17:54:23;11.90;85.90
12704;DHT22;6416;52.182;7.650;2023-01-13T17:56:48;11.80;86.20
12704;DHT22;6416;52.182;7.650;2023-01-13T17:59:16;11.90;86.10
12704;DHT22;6416;52.182;7.650;2023-01-13T18:01:43;11.90;85.90
12704;DHT22;6416;52.182;7.650;2023-01-13T18:04:18;11.90;85.90